Time;durP1;ratioP1;P1;durP2;ratioP2;P2;SDS_P1;SDS_P2;PMS_P1;PMS_P2;Temp;Humidity;BMP_temperature;BMP_pressure;BME280_temperature;BME280_humidity;BME280_pressure;Samples;Min_cycle;Max_cycle;Signal;HPM_P1;HPM_P2
2021/03/04 00:00:37;;;;;;;176.55;86.90;;;128.40;1945.60;;;;;;5094246;28;20024;-63
2021/03/04 00:03:05;;;;;;;187.20;93.45;;;128.40;1945.60;;;;;;5093392;28;20036;-64
2021/03/04 00:05:31;;;;;;;195.77;98.85;;;128.40;1945.60;;;;;;5093317;28;20020;-63
2021/03/04 00:07:57;;;;;;;228.50;111.28;;;128.40;1971.20;;;;;;5093771;28;20537;-63
2021/03/04 00:10:23;;;;;;;283.52;129.70;;;128.50;1971.20;;;;;;5091234;28;20166;-64
2021/03/04 00:12:50;;;;;;;293.08;139.40;;;128.50;1971.20;;;;;;5093906;28;20028;-64
2021/03/04 00:15:19;;;;;;;307.13;145.93;;;128.60;1971.20;;;;;;5091084;28;20030;-63
2021/03/04 00:17:46;;;;;;;317.40;151.60;;;128.60;1971.20;;;;;;5095543;28;20032;-63
2021/03/04 00:20:15;;;;;;;365.23;164.77;;;128.70;1971.20;;;;;;5091465;28;20180;-63
2021/03/04 00:22:41;;;;;;;460.20;191.32;;;128.60;1971.20;;;;;;5095338;28;20046;-63
2021/03/04 00:25:10;;;;;;;426.52;192.57;;;128.60;1971.20;;;;;;5093058;28;20027;-63
2021/03/04 00:27:36;;;;;;;430.50;194.70;;;128.70;1996.80;;;;;;5095398;28;20058;-63
2021/03/04 00:30:02;;;;;;;413.88;197.60;;;128.80;1996.80;;;;;;5091311;28;20024;-63
2021/03/04 00:32:28;;;;;;;367.25;184.95;;;128.80;1996.80;;;;;;5088102;28;20032;-63
2021/03/04 00:34:54;;;;;;;433.65;206.70;;;128.80;1996.80;;;;;;5092820;28;20419;-63
2021/03/04 00:37:19;;;;;;;436.15;211.48;;;128.80;1996.80;;;;;;5093366;28;20032;-63
2021/03/04 00:39:45;;;;;;;394.27;200.32;;;128.80;1996.80;;;;;;5094320;28;20478;-64
2021/03/04 00:42:11;;;;;;;400.48;204.85;;;128.90;1996.80;;;;;;5094910;28;20034;-64
2021/03/04 00:44:37;;;;;;;377.55;197.20;;;128.90;1996.80;;;;;;5093449;28;20024;-63
2021/03/04 00:47:04;;;;;;;359.20;190.75;;;128.90;2022.40;;;;;;5094988;28;20031;-63
2021/03/04 00:49:30;;;;;;;352.55;182.30;;;128.90;2022.40;;;;;;5092452;28;20046;-63
2021/03/04 00:51:56;;;;;;;346.60;180.90;;;128.80;2022.40;;;;;;5092540;28;20017;-64
2021/03/04 00:54:22;;;;;;;366.10;187.80;;;128.80;1996.80;;;;;;5093355;28;20028;-64
2021/03/04 00:56:47;;;;;;;327.75;169.88;;;128.80;1996.80;;;;;;5092802;28;20040;-64
2021/03/04 00:59:13;;;;;;;307.33;152.45;;;128.80;1996.80;;;;;;5091768;28;20016;-64
2021/03/04 01:01:39;;;;;;;263.50;128.45;;;128.80;1996.80;;;;;;5091148;28;20076;-64
2021/03/04 01:04:05;;;;;;;237.68;117.32;;;128.80;1971.20;;;;;;5093367;28;20438;-63
2021/03/04 01:06:30;;;;;;;232.85;115.05;;;128.50;1971.20;;;;;;5092450;28;20034;-63
2021/03/04 01:08:56;;;;;;;221.50;111.57;;;128.50;1971.20;;;;;;5091069;28;20059;-64
2021/03/04 01:11:22;;;;;;;214.32;108.90;;;128.40;1996.80;;;;;;5093077;28;20036;-64
2021/03/04 01:13:48;;;;;;;222.60;110.32;;;128.30;1996.80;;;;;;5092979;28;20373;-64
2021/03/04 01:16:13;;;;;;;227.18;112.65;;;128.20;2022.40;;;;;;5093467;28;20055;-63
2021/03/04 01:18:39;;;;;;;210.38;106.15;;;128.10;1996.80;;;;;;5090134;28;20038;-63
2021/03/04 01:21:06;;;;;;;207.15;101.75;;;128.00;2022.40;;;;;;5093974;28;20427;-64
2021/03/04 01:23:32;;;;;;;202.52;101.18;;;103.20;1996.80;;;;;;5090599;28;20036;-63
2021/03/04 01:25:58;;;;;;;195.82;97.97;;;103.10;2022.40;;;;;;5093417;28;20050;-63
2021/03/04 01:28:24;;;;;;;192.57;97.70;;;103.00;2022.40;;;;;;5090160;28;20126;-63
2021/03/04 01:30:50;;;;;;;191.55;102.00;;;103.00;2048.00;;;;;;5093763;28;20048;-63
2021/03/04 01:33:16;;;;;;;212.77;105.38;;;102.90;2073.60;;;;;;5089851;28;20456;-63
2021/03/04 01:35:42;;;;;;;219.90;111.43;;;102.90;2073.60;;;;;;5093711;28;20065;-63
2021/03/04 01:38:08;;;;;;;234.88;115.93;;;102.90;2099.20;;;;;;5091290;28;20032;-64
2021/03/04 01:40:33;;;;;;;227.20;111.00;;;102.80;2099.20;;;;;;5093157;28;20020;-63
2021/03/04 01:42:59;;;;;;;233.40;117.18;;;102.90;2124.80;;;;;;5091972;28;20044;-64
2021/03/04 01:45:25;;;;;;;233.40;115.30;;;102.90;2124.80;;;;;;5093375;28;20473;-64
2021/03/04 01:47:55;;;;;;;238.18;117.05;;;102.90;2124.80;;;;;;5089089;28;20044;-64
2021/03/04 01:50:22;;;;;;;249.85;123.10;;;102.80;2150.40;;;;;;5093195;28;20060;-64
2021/03/04 01:52:48;;;;;;;251.00;119.25;;;102.90;2176.00;;;;;;5090666;28;20025;-63
2021/03/04 01:55:18;;;;;;;234.80;116.43;;;102.90;2150.40;;;;;;5092860;28;20130;-64
2021/03/04 01:57:46;;;;;;;216.77;108.75;;;102.90;2124.80;;;;;;5089071;28;20040;-63
2021/03/04 02:00:14;;;;;;;200.82;100.00;;;102.90;2099.20;;;;;;5092755;28;20032;-63
2021/03/04 02:02:40;;;;;;;189.65;97.15;;;102.90;2073.60;;;;;;5092332;28;20435;-63
2021/03/04 02:05:11;;;;;;;182.20;91.63;;;102.80;2073.60;;;;;;5091516;28;20546;-63
2021/03/04 02:07:57;;;;;;;185.25;95.03;;;102.80;2073.60;;;;;;5087459;28;20066;-64
2021/03/04 02:10:43;;;;;;;172.15;90.22;;;102.80;2073.60;;;;;;5089904;28;20119;-63
2021/03/04 02:13:19;;;;;;;189.77;94.55;;;102.80;2073.60;;;;;;5091445;28;20039;-64
2021/03/04 02:15:59;;;;;;;187.68;95.05;;;102.70;2073.60;;;;;;5091595;28;20120;-63
2021/03/04 02:18:29;;;;;;;196.32;96.70;;;102.80;2099.20;;;;;;5091101;28;20054;-64
2021/03/04 02:21:22;;;;;;;191.30;96.78;;;102.80;2099.20;;;;;;5093032;28;20046;-63
2021/03/04 02:23:57;;;;;;;178.50;92.45;;;102.70;2099.20;;;;;;5091627;28;20104;-64
2021/03/04 02:26:30;;;;;;;185.40;91.70;;;102.80;2099.20;;;;;;5090918;28;20031;-64
2021/03/04 02:28:58;;;;;;;163.05;85.63;;;102.80;2099.20;;;;;;5092627;28;20032;-64
2021/03/04 02:31:28;;;;;;;152.95;81.57;;;102.70;2099.20;;;;;;5092713;28;20049;-64
2021/03/04 02:33:54;;;;;;;153.80;78.40;;;102.70;2099.20;;;;;;5092712;28;20016;-64
2021/03/04 02:36:20;;;;;;;140.07;74.60;;;102.70;2124.80;;;;;;5089037;28;20020;-63
2021/03/04 02:38:47;;;;;;;153.73;76.07;;;102.70;2099.20;;;;;;5091063;28;20030;-63
2021/03/04 02:41:13;;;;;;;132.32;67.60;;;102.70;2099.20;;;;;;5092534;28;20028;-63
2021/03/04 02:43:41;;;;;;;126.22;65.63;;;102.70;2073.60;;;;;;5092209;28;20020;-64
2021/03/04 02:46:10;;;;;;;136.38;66.90;;;102.70;2073.60;;;;;;5092494;28;20165;-63
2021/03/04 02:48:37;;;;;;;136.48;67.60;;;102.60;2099.20;;;;;;5092525;28;20035;-63
2021/03/04 02:51:04;;;;;;;128.82;65.30;;;102.60;2099.20;;;;;;5092300;28;20017;-64
2021/03/04 02:53:30;;;;;;;130.15;65.50;;;102.60;2073.60;;;;;;5092798;28;20052;-64
2021/03/04 02:55:57;;;;;;;127.03;64.32;;;102.60;2073.60;;;;;;5092671;28;20020;-64
2021/03/04 02:58:23;;;;;;;125.82;64.28;;;102.60;2073.60;;;;;;5092314;28;20039;-64
2021/03/04 03:00:50;;;;;;;126.78;64.47;;;102.60;2073.60;;;;;;5092312;28;20024;-63
2021/03/04 03:03:16;;;;;;;131.60;68.53;;;102.50;2073.60;;;;;;5091927;28;20078;-64
2021/03/04 03:05:45;;;;;;;149.02;76.95;;;102.50;2073.60;;;;;;5092185;28;20020;-64
2021/03/04 03:08:18;;;;;;;137.57;72.53;;;102.50;2099.20;;;;;;5088602;28;20058;-63
2021/03/04 03:10:49;;;;;;;150.32;75.15;;;102.50;2099.20;;;;;;5091933;28;20023;-64
2021/03/04 03:13:15;;;;;;;175.13;87.60;;;102.40;2099.20;;;;;;5092259;28;20035;-64
2021/03/04 03:15:41;;;;;;;166.48;86.88;;;102.50;2124.80;;;;;;5090940;28;20474;-64
2021/03/04 03:18:07;;;;;;;188.18;97.25;;;102.50;2124.80;;;;;;5092359;28;20027;-64
2021/03/04 03:20:33;;;;;;;192.25;97.55;;;102.50;2150.40;;;;;;5092417;28;20373;-64
2021/03/04 03:22:59;;;;;;;195.40;99.43;;;102.40;2176.00;;;;;;5091926;28;20431;-64
2021/03/04 03:25:25;;;;;;;208.80;108.28;;;102.40;2150.40;;;;;;5092388;28;20046;-64
2021/03/04 03:27:51;;;;;;;215.10;107.53;;;102.50;2150.40;;;;;;5090163;28;20033;-63
2021/03/04 03:30:23;;;;;;;207.85;105.90;;;102.40;2176.00;;;;;;5107756;28;20477;-63
2021/03/04 03:33:02;;;;;;;200.43;101.82;;;102.40;2176.00;;;;;;5096175;28;20027;-63
2021/03/04 03:35:28;;;;;;;198.88;99.05;;;77.70;2176.00;;;;;;5094565;28;20037;-64
2021/03/04 03:37:56;;;;;;;196.32;99.40;;;77.70;2176.00;;;;;;5092284;28;20031;-63
2021/03/04 03:40:24;;;;;;;189.70;94.68;;;102.40;2150.40;;;;;;5095675;28;20034;-63
2021/03/04 03:42:55;;;;;;;181.63;91.10;;;102.40;2150.40;;;;;;5096178;28;20032;-64
2021/03/04 03:45:26;;;;;;;176.90;85.03;;;102.40;2150.40;;;;;;5093612;28;20016;-63
2021/03/04 03:47:52;;;;;;;163.85;83.45;;;102.50;2124.80;;;;;;5095939;28;20031;-63
2021/03/04 03:50:19;;;;;;;186.13;96.20;;;102.50;2124.80;;;;;;5092811;28;20024;-63
2021/03/04 03:52:45;;;;;;;169.18;87.35;;;102.40;2124.80;;;;;;5095576;28;20478;-64
2021/03/04 03:55:14;;;;;;;157.65;79.15;;;102.50;2124.80;;;;;;5095414;28;20178;-64
2021/03/04 03:57:41;;;;;;;145.50;73.15;;;102.50;2099.20;;;;;;5092892;28;20024;-63
2021/03/04 04:00:09;;;;;;;140.10;70.70;;;102.50;2099.20;;;;;;5095841;28;20023;-63
2021/03/04 04:02:35;;;;;;;132.75;67.35;;;102.50;2099.20;;;;;;5095769;28;20099;-63
2021/03/04 04:05:02;;;;;;;119.22;59.72;;;102.50;2073.60;;;;;;5095471;28;20146;-63
2021/03/04 04:07:30;;;;;;;116.72;57.35;;;102.40;2099.20;;;;;;5092194;28;20036;-63
2021/03/04 04:09:56;;;;;;;114.00;58.53;;;77.70;2099.20;;;;;;5095185;28;20032;-63
2021/03/04 04:12:23;;;;;;;126.20;62.03;;;77.60;2124.80;;;;;;5095642;28;20052;-64
2021/03/04 04:14:50;;;;;;;118.45;59.60;;;77.60;2124.80;;;;;;5093806;28;20032;-63
2021/03/04 04:17:16;;;;;;;116.88;60.05;;;77.60;2124.80;;;;;;5096202;28;20370;-63
2021/03/04 04:19:42;;;;;;;116.72;55.88;;;77.60;2124.80;;;;;;5096564;28;20039;-64
2021/03/04 04:22:08;;;;;;;109.57;54.65;;;77.60;2150.40;;;;;;5089740;28;20108;-64
2021/03/04 04:24:34;;;;;;;111.10;52.30;;;77.60;2150.40;;;;;;5085184;28;20122;-63
2021/03/04 04:26:59;;;;;;;99.90;51.85;;;77.60;2150.40;;;;;;5086667;28;20069;-63
2021/03/04 04:29:25;;;;;;;97.00;49.63;;;77.50;2176.00;;;;;;5093979;28;20438;-63
2021/03/04 04:31:51;;;;;;;175.45;67.25;;;77.40;2176.00;;;;;;5095437;28;20132;-63
2021/03/04 04:34:16;;;;;;;141.13;55.90;;;77.40;2176.00;;;;;;5094912;28;20032;-63
2021/03/04 04:36:42;;;;;;;131.32;52.65;;;77.50;2176.00;;;;;;5086161;28;20020;-63
2021/03/04 04:39:08;;;;;;;205.10;67.18;;;77.50;2176.00;;;;;;5076806;28;20086;-63
2021/03/04 04:41:34;;;;;;;257.75;75.53;;;77.60;2176.00;;;;;;5074778;28;20028;-63
2021/03/04 04:43:59;;;;;;;138.02;50.53;;;77.60;2176.00;;;;;;5076099;28;20031;-63
2021/03/04 04:46:25;;;;;;;106.57;45.65;;;77.60;2176.00;;;;;;5087380;28;20038;-63
2021/03/04 04:48:51;;;;;;;92.43;44.33;;;77.60;2176.00;;;;;;5075576;28;20039;-64
2021/03/04 04:51:16;;;;;;;85.40;40.65;;;77.60;2176.00;;;;;;5075709;28;20028;-64
2021/03/04 04:53:42;;;;;;;74.70;39.47;;;77.50;2176.00;;;;;;5076001;28;20112;-64
2021/03/04 04:56:08;;;;;;;83.47;42.30;;;77.60;2176.00;;;;;;5078958;28;20024;-63
2021/03/04 04:58:34;;;;;;;81.75;41.30;;;77.60;2176.00;;;;;;5084118;28;20162;-64
2021/03/04 05:01:00;;;;;;;118.25;50.00;;;77.60;2150.40;;;;;;5075466;28;20020;-63
2021/03/04 05:03:25;;;;;;;98.55;44.33;;;77.60;2176.00;;;;;;5075816;28;20107;-63
2021/03/04 05:05:51;;;;;;;60.30;33.53;;;77.60;2176.00;;;;;;5078761;28;20382;-63
2021/03/04 05:08:17;;;;;;;71.07;37.08;;;77.60;2176.00;;;;;;5084056;28;20036;-64
2021/03/04 05:10:43;;;;;;;61.55;31.65;;;77.60;2150.40;;;;;;5075285;28;20363;-64
2021/03/04 05:13:09;;;;;;;69.05;36.88;;;77.60;2176.00;;;;;;5075467;28;20035;-64
2021/03/04 05:15:35;;;;;;;75.40;38.92;;;77.50;2150.40;;;;;;5075156;28;20031;-64
2021/03/04 05:18:01;;;;;;;73.28;37.17;;;77.50;2150.40;;;;;;5075265;28;20099;-64
2021/03/04 05:20:27;;;;;;;113.75;54.17;;;77.30;2150.40;;;;;;5075081;28;20032;-63
2021/03/04 05:22:52;;;;;;;109.07;49.50;;;77.30;2176.00;;;;;;5075379;28;20103;-63
2021/03/04 05:25:18;;;;;;;277.35;113.82;;;77.40;2176.00;;;;;;5074785;28;20039;-63
2021/03/04 05:27:44;;;;;;;151.40;67.20;;;77.40;2201.60;;;;;;5075232;28;20036;-64
2021/03/04 05:30:10;;;;;;;140.27;64.35;;;77.40;2227.20;;;;;;5074929;28;20490;-63
2021/03/04 05:32:36;;;;;;;223.05;103.70;;;77.40;2227.20;;;;;;5074835;28;20111;-64
2021/03/04 05:35:03;;;;;;;235.25;110.18;;;77.40;2227.20;;;;;;5074684;28;20067;-63
2021/03/04 05:37:29;;;;;;;214.63;105.90;;;77.40;2227.20;;;;;;5075019;28;20052;-64
2021/03/04 05:39:54;;;;;;;231.65;113.70;;;77.50;2227.20;;;;;;5080861;28;20445;-63
2021/03/04 05:42:20;;;;;;;216.63;113.22;;;77.60;2227.20;;;;;;5094739;28;20119;-63
2021/03/04 05:44:46;;;;;;;165.23;88.72;;;77.60;2227.20;;;;;;5092602;28;20028;-64
2021/03/04 05:47:13;;;;;;;148.95;78.13;;;77.50;2227.20;;;;;;5092555;28;20359;-63
2021/03/04 05:49:49;;;;;;;168.43;94.95;;;77.60;2227.20;;;;;;5090860;28;20029;-63
2021/03/04 05:52:17;;;;;;;137.18;74.00;;;77.60;2227.20;;;;;;5088586;28;20052;-63
2021/03/04 05:54:46;;;;;;;177.85;95.70;;;77.70;2227.20;;;;;;5092815;28;20102;-63
2021/03/04 05:57:13;;;;;;;163.68;86.72;;;102.40;2227.20;;;;;;5071612;28;20067;-63
2021/03/04 05:59:40;;;;;;;195.23;100.20;;;102.50;2227.20;;;;;;5093143;28;20032;-64
2021/03/04 06:02:07;;;;;;;85.30;44.40;;;102.60;2227.20;;;;;;5092720;28;20485;-64
2021/03/04 06:04:33;;;;;;;66.65;35.80;;;102.60;2201.60;;;;;;5091421;28;20032;-64
2021/03/04 06:06:58;;;;;;;154.32;86.28;;;102.60;2124.80;;;;;;5084414;28;20032;-64
2021/03/04 06:09:27;;;;;;;132.23;71.20;;;102.70;2201.60;;;;;;5091716;28;20404;-63
2021/03/04 06:11:53;;;;;;;125.90;71.28;;;102.70;2227.20;;;;;;5090141;28;20028;-63
2021/03/04 06:14:19;;;;;;;93.03;48.20;;;102.90;2201.60;;;;;;5093577;28;20038;-63
2021/03/04 06:16:44;;;;;;;122.35;64.65;;;103.00;2150.40;;;;;;5091961;28;20058;-63
2021/03/04 06:19:20;;;;;;;115.00;61.63;;;103.10;2176.00;;;;;;5093031;28;20177;-64
2021/03/04 06:21:57;;;;;;;67.07;38.10;;;103.20;2176.00;;;;;;5094265;28;20028;-64
2021/03/04 06:24:23;;;;;;;85.90;43.83;;;103.30;2124.80;;;;;;5094168;28;20058;-64
2021/03/04 06:26:56;;;;;;;100.82;51.33;;;128.10;2099.20;;;;;;5094354;28;20030;-64
2021/03/04 06:29:24;;;;;;;127.63;65.22;;;128.30;2099.20;;;;;;5093916;28;20537;-64
2021/03/04 06:32:06;;;;;;;115.85;60.50;;;128.40;2099.20;;;;;;5090221;28;20500;-64
2021/03/04 06:34:33;;;;;;;120.90;62.28;;;128.50;2073.60;;;;;;5082862;28;20381;-64
2021/03/04 06:36:59;;;;;;;140.55;75.60;;;128.70;2048.00;;;;;;5077123;28;20020;-64
2021/03/04 06:39:39;;;;;;;134.85;81.38;;;128.80;2099.20;;;;;;5083193;28;20036;-64
2021/03/04 06:42:05;;;;;;;134.15;76.45;;;153.60;2073.60;;;;;;5085164;28;20025;-64
2021/03/04 06:44:55;;;;;;;112.03;62.38;;;153.80;2022.40;;;;;;5092289;28;20398;-64
2021/03/04 06:47:26;;;;;;;104.55;56.15;;;154.00;1996.80;;;;;;5082112;28;20024;-63
2021/03/04 06:49:53;;;;;;;109.05;61.50;;;154.20;1971.20;;;;;;5098594;28;20035;-63
2021/03/04 06:52:27;;;;;;;95.28;52.50;;;154.30;1945.60;;;;;;5082040;28;20036;-63
2021/03/04 06:54:55;;;;;;;86.75;47.50;;;179.20;1920.00;;;;;;5081442;28;20027;-63
2021/03/04 06:57:22;;;;;;;81.10;46.97;;;179.30;1868.80;;;;;;5082740;28;20077;-64
2021/03/04 06:59:49;;;;;;;98.35;54.03;;;179.40;1868.80;;;;;;5081926;28;20033;-64
2021/03/04 07:02:29;;;;;;;92.25;54.30;;;179.60;1843.20;;;;;;5085722;28;20501;-63
2021/03/04 07:05:02;;;;;;;103.90;60.00;;;179.70;1843.20;;;;;;5074278;28;20017;-64
2021/03/04 07:07:28;;;;;;;94.07;56.75;;;180.00;1817.60;;;;;;5082090;28;20535;-64
2021/03/04 07:09:59;;;;;;;100.68;61.90;;;204.90;1792.00;;;;;;5092313;28;20028;-64
2021/03/04 07:12:26;;;;;;;93.25;57.42;;;205.20;1740.80;;;;;;5082291;28;20422;-67
2021/03/04 07:14:53;;;;;;;98.10;57.63;;;205.40;1715.20;;;;;;5093699;28;20028;-65
2021/03/04 07:17:25;;;;;;;93.75;57.58;;;205.50;1689.60;;;;;;5093565;28;20030;-63
2021/03/04 07:19:56;;;;;;;90.00;53.75;;;230.50;1612.80;;;;;;5093813;28;20024;-64
2021/03/04 07:22:24;;;;;;;90.90;52.78;;;230.60;1612.80;;;;;;5093574;28;20035;-60
2021/03/04 07:24:51;;;;;;;101.85;58.25;;;230.80;1561.60;;;;;;5093606;28;20046;-64
2021/03/04 07:27:17;;;;;;;114.50;62.85;;;231.00;1536.00;;;;;;5093284;28;20020;-65
2021/03/04 07:29:46;;;;;;;118.65;67.55;;;256.00;1510.40;;;;;;5092791;28;20054;-64
2021/03/04 07:32:13;;;;;;;108.78;61.13;;;256.30;1484.80;;;;;;5093112;28;20043;-60
2021/03/04 07:34:40;;;;;;;144.77;68.18;;;256.40;1459.20;;;;;;5093641;28;20028;-60
2021/03/04 07:37:08;;;;;;;278.17;90.45;;;256.80;1459.20;;;;;;5093341;28;20028;-61
2021/03/04 07:39:41;;;;;;;231.95;86.43;;;281.90;1408.00;;;;;;5085387;28;20105;-60
2021/03/04 07:42:26;;;;;;;189.98;78.07;;;282.10;1408.00;;;;;;5072901;28;20024;-60
2021/03/04 07:44:53;;;;;;;101.30;57.60;;;307.20;1382.40;;;;;;5088607;28;20514;-60
2021/03/04 07:47:26;;;;;;;77.35;48.35;;;307.40;1331.20;;;;;;5072667;28;20033;-60
2021/03/04 07:49:53;;;;;;;105.43;73.03;;;307.60;1305.60;;;;;;5072854;28;20022;-61
2021/03/04 07:52:20;;;;;;;77.13;48.63;;;307.70;1331.20;;;;;;5072103;28;20052;-60
2021/03/04 07:54:50;;;;;;;62.30;41.35;;;308.10;1280.00;;;;;;5071623;28;20378;-60
2021/03/04 07:57:18;;;;;;;52.67;36.85;;;333.00;1280.00;;;;;;5075162;28;20136;-60
2021/03/04 08:00:05;;;;;;;52.47;35.47;;;333.50;1228.80;;;;;;5080551;28;20070;-61
2021/03/04 08:02:31;;;;;;;53.05;35.50;;;358.50;1177.60;;;;;;5085117;28;20044;-61
2021/03/04 08:05:09;;;;;;;52.38;34.60;;;359.00;1100.80;;;;;;5081236;28;20078;-62
2021/03/04 08:07:35;;;;;;;53.15;35.15;;;358.90;1126.40;;;;;;5071674;28;20119;-61
2021/03/04 08:10:11;;;;;;;47.60;33.08;;;359.30;1100.80;;;;;;5072840;28;20031;-65
2021/03/04 08:13:06;;;;;;;43.53;30.60;;;384.30;1049.60;;;;;;5072558;28;20107;-62
2021/03/04 08:15:34;;;;;;;45.60;30.30;;;384.50;1024.00;;;;;;5052756;28;20029;-62
2021/03/04 08:18:04;;;;;;;46.45;32.45;;;384.50;1024.00;;;;;;5054220;28;20119;-61
2021/03/04 08:20:30;;;;;;;52.13;35.45;;;384.70;1024.00;;;;;;5061402;28;20037;-73
2021/03/04 08:22:57;;;;;;;69.15;43.53;;;384.90;998.40;;;;;;5073009;28;20035;-72
2021/03/04 08:25:28;;;;;;;47.75;32.00;;;409.60;1049.60;;;;;;5055518;28;20501;-72
2021/03/04 08:27:55;;;;;;;48.88;33.97;;;410.10;998.40;;;;;;5071060;28;20474;-72
2021/03/04 08:30:29;;;;;;;56.35;35.28;;;435.20;972.80;;;;;;5071581;28;20114;-71
2021/03/04 08:32:57;;;;;;;64.93;39.55;;;435.40;947.20;;;;;;5072121;28;20186;-72
2021/03/04 08:35:24;;;;;;;47.92;29.77;;;435.70;921.60;;;;;;5070784;28;20107;-72
2021/03/04 08:38:01;;;;;;;56.10;30.20;;;436.10;870.40;;;;;;5052484;28;20071;-70
2021/03/04 08:40:27;;;;;;;36.03;23.70;;;461.10;870.40;;;;;;5071320;28;20036;-71
2021/03/04 08:42:53;;;;;;;47.97;27.73;;;486.90;768.00;;;;;;5072141;28;20032;-73
2021/03/04 08:45:32;;;;;;;37.72;23.45;;;512.80;691.20;;;;;;5072367;28;20048;-70
2021/03/04 08:47:58;;;;;;;40.20;24.05;;;538.10;691.20;;;;;;5054619;28;20127;-72
2021/03/04 08:50:39;;;;;;;178.95;101.93;;;563.70;665.60;;;;;;5072523;28;20027;-63
2021/03/04 08:53:14;;;;;;;92.40;61.35;;;563.90;665.60;;;;;;5094038;28;20036;-72
2021/03/04 08:55:47;;;;;;;61.30;43.15;;;564.10;640.00;;;;;;5092426;28;20162;-69
2021/03/04 08:58:14;;;;;;;45.13;29.20;;;564.00;640.00;;;;;;5094675;28;20024;-72
2021/03/04 09:00:40;;;;;;;90.88;51.80;;;538.50;640.00;;;;;;5094591;28;20028;-71
2021/03/04 09:03:10;;;;;;;66.05;43.35;;;563.50;665.60;;;;;;5093605;28;20046;-72
2021/03/04 09:05:37;;;;;;;31.70;24.55;;;563.90;640.00;;;;;;5094861;28;20065;-70
2021/03/04 09:08:08;;;;;;;33.63;26.42;;;564.00;640.00;;;;;;5092317;28;20036;-69
2021/03/04 09:10:50;;;;;;;57.60;44.58;;;589.00;614.40;;;;;;5082398;28;20363;-69
2021/03/04 09:13:21;;;;;;;78.63;42.95;;;589.30;588.80;;;;;;5110206;28;20024;-69
2021/03/04 09:15:50;;;;;;;26.15;20.83;;;589.70;563.20;;;;;;5079466;28;20024;-69
2021/03/04 09:18:16;;;;;;;34.83;26.58;;;614.70;537.60;;;;;;5081849;28;20594;-68
2021/03/04 09:20:43;;;;;;;30.15;22.73;;;614.80;537.60;;;;;;5092287;28;20024;-66
2021/03/04 09:23:10;;;;;;;29.45;23.27;;;615.30;512.00;;;;;;5092266;28;20027;-69
2021/03/04 09:25:36;;;;;;;27.35;21.67;;;640.00;512.00;;;;;;5094098;28;20028;-69
2021/03/04 09:28:02;;;;;;;26.63;19.90;;;640.30;486.40;;;;;;5093074;28;20260;-67
2021/03/04 09:30:30;;;;;;;38.08;24.17;;;640.80;460.80;;;;;;5093637;28;20078;-68
2021/03/04 09:32:58;;;;;;;47.80;31.08;;;640.80;460.80;;;;;;5094432;28;20107;-69
2021/03/04 09:35:24;;;;;;;32.90;22.88;;;640.60;460.80;;;;;;5093729;28;20020;-70
2021/03/04 09:37:51;;;;;;;26.45;20.90;;;640.10;486.40;;;;;;5091934;28;20085;-69
2021/03/04 09:40:30;;;;;;;25.02;19.75;;;640.40;460.80;;;;;;5093938;28;20016;-70
2021/03/04 09:42:57;;;;;;;25.08;17.67;;;640.70;460.80;;;;;;5092600;28;20074;-68
2021/03/04 09:45:23;;;;;;;24.80;20.83;;;665.70;460.80;;;;;;5071481;28;20046;-72
2021/03/04 09:47:50;;;;;;;30.70;23.35;;;665.80;486.40;;;;;;5071225;28;20020;-69
2021/03/04 09:50:20;;;;;;;28.23;22.75;;;666.30;435.20;;;;;;5093266;28;20032;-69
2021/03/04 09:53:06;;;;;;;26.95;20.45;;;666.50;435.20;;;;;;5092569;28;20408;-69
2021/03/04 09:55:43;;;;;;;29.00;24.80;;;691.20;435.20;;;;;;5094083;28;20052;-69
2021/03/04 09:58:16;;;;;;;24.23;18.88;;;691.60;384.00;;;;;;5094157;28;20020;-67
2021/03/04 10:00:45;;;;;;;21.48;16.50;;;691.70;384.00;;;;;;5094139;28;20047;-69
2021/03/04 10:03:13;;;;;;;18.05;14.90;;;691.60;384.00;;;;;;5087022;28;20036;-69
2021/03/04 10:05:50;;;;;;;38.78;26.40;;;691.30;384.00;;;;;;5077141;28;20079;-69
2021/03/04 10:08:18;;;;;;;39.60;24.65;;;691.60;384.00;;;;;;5081921;28;20028;-69
2021/03/04 10:10:46;;;;;;;35.25;20.90;;;717.20;384.00;;;;;;5075488;28;20365;-70
2021/03/04 10:13:11;;;;;;;45.97;23.35;;;717.60;332.80;;;;;;5090781;28;20016;-69
2021/03/04 10:15:40;;;;;;;27.85;18.90;;;742.80;358.40;;;;;;5087320;28;20477;-68
2021/03/04 10:18:15;;;;;;;18.00;12.95;;;768.00;307.20;;;;;;5079844;28;20028;-68
2021/03/04 10:20:46;;;;;;;28.38;17.98;;;768.20;307.20;;;;;;5093770;28;20370;-67
2021/03/04 10:23:13;;;;;;;21.40;15.15;;;793.90;307.20;;;;;;5093672;28;20020;-69
2021/03/04 10:25:40;;;;;;;19.35;14.55;;;793.80;307.20;;;;;;5092526;28;20035;-68
2021/03/04 10:28:06;;;;;;;27.23;17.15;;;768.80;281.60;;;;;;5093685;28;20028;-70
2021/03/04 10:30:33;;;;;;;17.33;14.23;;;793.70;307.20;;;;;;5093504;28;20048;-68
2021/03/04 10:33:03;;;;;;;21.27;15.40;;;768.50;307.20;;;;;;5093552;28;20112;-68
2021/03/04 10:35:30;;;;;;;27.80;16.90;;;793.70;281.60;;;;;;5093578;28;20059;-68
2021/03/04 10:37:56;;;;;;;31.27;20.02;;;794.00;281.60;;;;;;5092584;28;20465;-68
2021/03/04 10:40:23;;;;;;;46.50;27.75;;;819.30;256.00;;;;;;5093209;28;20027;-69
2021/03/04 10:42:49;;;;;;;43.45;25.80;;;819.70;230.40;;;;;;5092415;28;20470;-68
2021/03/04 10:45:17;;;;;;;32.03;22.35;;;820.00;230.40;;;;;;5079571;28;20036;-63
2021/03/04 10:47:45;;;;;;;22.40;14.80;;;845.60;256.00;;;;;;5070738;28;20044;-69
2021/03/04 10:50:14;;;;;;;23.05;16.60;;;870.40;256.00;;;;;;5070644;28;20040;-67
2021/03/04 10:52:40;;;;;;;44.47;24.80;;;870.80;256.00;;;;;;5070895;28;20047;-68
2021/03/04 10:55:09;;;;;;;28.02;21.10;;;871.00;256.00;;;;;;5076610;28;20020;-66
2021/03/04 10:57:36;;;;;;;20.23;14.85;;;871.00;256.00;;;;;;5081599;28;20418;-67
2021/03/04 11:00:06;;;;;;;22.92;17.10;;;870.90;256.00;;;;;;5082321;28;20042;-69
2021/03/04 11:02:32;;;;;;;20.80;14.93;;;871.30;256.00;;;;;;5081859;28;20089;-68
2021/03/04 11:04:58;;;;;;;27.13;21.35;;;871.00;256.00;;;;;;5080663;28;20458;-68
2021/03/04 11:07:23;;;;;;;15.48;11.85;;;871.20;256.00;;;;;;5095134;28;20093;-68
2021/03/04 11:09:52;;;;;;;19.90;15.65;;;845.70;256.00;;;;;;5081651;28;20028;-67
2021/03/04 11:12:19;;;;;;;20.55;16.08;;;845.70;256.00;;;;;;5077051;28;20059;-66
2021/03/04 11:14:45;;;;;;;23.85;18.08;;;870.80;256.00;;;;;;5080783;28;20021;-67
2021/03/04 11:17:12;;;;;;;20.25;14.90;;;871.10;256.00;;;;;;5080754;28;20097;-67
2021/03/04 11:19:37;;;;;;;20.95;16.67;;;896.70;256.00;;;;;;5074723;28;20039;-66
2021/03/04 11:22:04;;;;;;;18.13;14.50;;;896.10;256.00;;;;;;5070273;28;20530;-67
2021/03/04 11:24:30;;;;;;;16.77;13.30;;;896.50;256.00;;;;;;5070719;28;20032;-68
2021/03/04 11:26:55;;;;;;;18.92;13.48;;;896.00;256.00;;;;;;5069845;28;20028;-67
2021/03/04 11:29:21;;;;;;;16.00;10.68;;;871.20;256.00;;;;;;5070485;28;20059;-67
2021/03/04 11:31:47;;;;;;;13.95;10.05;;;871.00;256.00;;;;;;5093826;28;20055;-64
2021/03/04 11:34:13;;;;;;;14.38;12.38;;;871.10;256.00;;;;;;5089691;28;20458;-67
2021/03/04 11:36:39;;;;;;;19.67;14.65;;;870.70;256.00;;;;;;5090452;28;20100;-64
2021/03/04 11:39:05;;;;;;;17.23;14.05;;;871.10;256.00;;;;;;5090408;28;20464;-64
2021/03/04 11:41:32;;;;;;;19.73;17.63;;;870.50;256.00;;;;;;5090398;28;20020;-63
2021/03/04 11:43:58;;;;;;;20.13;18.13;;;870.40;256.00;;;;;;5089516;28;20031;-63
2021/03/04 11:46:24;;;;;;;23.40;17.73;;;844.90;256.00;;;;;;5085237;28;20385;-67
2021/03/04 11:48:51;;;;;;;20.83;12.50;;;870.80;256.00;;;;;;5090029;28;20024;-64
2021/03/04 11:51:17;;;;;;;14.50;11.70;;;870.80;256.00;;;;;;5092350;28;20381;-66
2021/03/04 11:53:43;;;;;;;13.15;9.85;;;870.90;256.00;;;;;;5092273;28;20378;-63
2021/03/04 11:56:09;;;;;;;15.40;11.80;;;871.20;256.00;;;;;;5093197;28;20522;-64
2021/03/04 11:58:36;;;;;;;12.00;10.27;;;845.00;256.00;;;;;;5091425;28;20107;-63
2021/03/04 12:01:02;;;;;;;14.68;10.35;;;820.00;230.40;;;;;;5091252;28;20348;-66